createdAt,value
2019-01-31T00:02:13.129Z,2.90
2019-01-31T00:05:16.457Z,2.90
2019-01-31T00:07:54.242Z,3.00
2019-01-31T00:10:31.698Z,3.00
2019-01-31T00:13:06.097Z,3.00
2019-01-31T00:15:43.597Z,3.00
2019-01-31T00:18:15.328Z,3.00
2019-01-31T00:20:52.753Z,3.00
2019-01-31T00:23:39.409Z,3.00
2019-01-31T00:26:19.972Z,3.00
2019-01-31T00:29:00.754Z,3.00
2019-01-31T00:31:47.848Z,3.00
2019-01-31T00:34:31.862Z,3.00
2019-01-31T00:37:06.464Z,3.00
2019-01-31T00:39:44.057Z,3.10
2019-01-31T00:42:24.612Z,3.00
2019-01-31T00:45:01.865Z,3.00
2019-01-31T00:47:45.636Z,3.10
2019-01-31T00:50:41.001Z,3.00
2019-01-31T00:53:38.287Z,3.00
2019-01-31T00:56:21.660Z,3.00
2019-01-31T00:59:05.638Z,3.10
2019-01-31T01:01:39.857Z,3.10
2019-01-31T01:04:28.195Z,3.10
2019-01-31T01:07:22.596Z,3.10
2019-01-31T01:09:57.716Z,3.10
2019-01-31T01:12:38.058Z,3.00
2019-01-31T01:15:26.638Z,3.00
2019-01-31T01:17:58.274Z,3.00
2019-01-31T01:20:30.150Z,2.90
2019-01-31T01:23:07.760Z,2.90
2019-01-31T01:25:55.238Z,2.90
2019-01-31T01:28:47.334Z,2.90
2019-01-31T01:31:24.538Z,2.90
2019-01-31T01:34:14.472Z,2.90
2019-01-31T01:37:04.471Z,2.90
2019-01-31T01:39:51.365Z,2.90
2019-01-31T01:42:23.129Z,2.90
2019-01-31T01:45:10.984Z,2.80
2019-01-31T01:47:45.482Z,2.80
2019-01-31T01:50:26.046Z,2.80
2019-01-31T01:53:00.480Z,2.80
2019-01-31T01:55:48.814Z,2.70
2019-01-31T01:58:35.744Z,2.70
2019-01-31T02:01:07.569Z,2.70
2019-01-31T02:03:48.318Z,2.70
2019-01-31T02:06:22.760Z,2.70
2019-01-31T02:09:14.404Z,2.70
2019-01-31T02:11:48.834Z,2.70
2019-01-31T02:14:48.034Z,2.70
2019-01-31T02:17:46.810Z,2.70
2019-01-31T02:20:38.030Z,2.70
2019-01-31T02:23:22.028Z,2.70
2019-01-31T02:26:00.081Z,2.70
2019-01-31T02:28:37.580Z,2.70
2019-01-31T02:31:25.660Z,2.70
2019-01-31T02:34:27.844Z,2.70
2019-01-31T02:37:05.286Z,2.70
2019-01-31T02:39:46.056Z,2.80
2019-01-31T02:42:21.162Z,2.80
2019-01-31T02:45:15.770Z,2.70
2019-01-31T02:48:06.954Z,2.80
2019-01-31T02:50:38.788Z,2.80
2019-01-31T02:53:10.622Z,2.70
2019-01-31T02:55:51.278Z,2.70
2019-01-31T02:58:45.220Z,2.80
2019-01-31T03:01:19.770Z,2.70
2019-01-31T03:04:07.752Z,2.70
2019-01-31T03:07:14.498Z,2.70
2019-01-31T03:09:54.890Z,2.60
2019-01-31T03:12:40.133Z,2.60
2019-01-31T03:15:29.296Z,2.60
2019-01-31T03:18:10.025Z,2.50
2019-01-31T03:20:50.620Z,2.50
2019-01-31T03:23:36.570Z,2.50
2019-01-31T03:26:24.769Z,2.40
2019-01-31T03:29:02.433Z,2.40
2019-01-31T03:31:55.325Z,2.40
2019-01-31T03:34:29.949Z,2.30
2019-01-31T03:37:22.672Z,2.30
2019-01-31T03:40:06.922Z,2.30
2019-01-31T03:42:36.088Z,2.30
2019-01-31T03:45:13.599Z,2.20
2019-01-31T03:47:48.455Z,2.20
2019-01-31T03:50:23.020Z,2.20
2019-01-31T03:52:54.882Z,2.20
2019-01-31T03:55:38.700Z,2.20
2019-01-31T03:58:27.430Z,2.20
2019-01-31T04:01:15.912Z,2.10
2019-01-31T04:03:52.738Z,2.10
2019-01-31T04:06:24.615Z,2.10
2019-01-31T04:08:53.324Z,2.10
2019-01-31T04:11:22.292Z,2.10
2019-01-31T04:13:50.949Z,2.00
2019-01-31T04:16:19.756Z,2.00
2019-01-31T04:18:48.306Z,2.00
2019-01-31T04:21:17.352Z,2.00
2019-01-31T04:23:45.908Z,2.00
2019-01-31T04:26:14.552Z,2.00
2019-01-31T04:28:43.121Z,2.00
2019-01-31T04:31:11.747Z,2.00
2019-01-31T04:33:40.589Z,1.90
2019-01-31T04:36:09.152Z,1.90
2019-01-31T04:38:38.154Z,1.90
2019-01-31T04:41:06.774Z,1.90
2019-01-31T04:43:35.459Z,1.90
2019-01-31T04:46:04.157Z,1.90
2019-01-31T04:48:32.897Z,1.90
2019-01-31T04:51:01.580Z,1.80
2019-01-31T04:53:30.140Z,1.80
2019-01-31T04:55:58.703Z,1.80
2019-01-31T04:58:27.638Z,1.90
2019-01-31T05:00:58.918Z,1.90
2019-01-31T05:03:27.658Z,1.80
2019-01-31T05:05:56.299Z,1.80
2019-01-31T05:08:24.855Z,1.80
2019-01-31T05:10:53.722Z,1.80
2019-01-31T05:13:22.921Z,1.90
2019-01-31T05:15:51.624Z,1.90
2019-01-31T05:18:20.182Z,1.80
2019-01-31T05:20:48.880Z,1.80
2019-01-31T05:23:17.445Z,1.80
2019-01-31T05:25:46.249Z,1.80
2019-01-31T05:28:14.794Z,1.80
2019-01-31T05:30:43.631Z,1.80
2019-01-31T05:33:13.236Z,1.80
2019-01-31T05:35:42.024Z,1.80
2019-01-31T05:38:10.674Z,1.80
2019-01-31T05:40:39.694Z,1.80
2019-01-31T05:43:08.334Z,1.70
2019-01-31T05:45:37.002Z,1.80
2019-01-31T05:48:05.648Z,1.80
2019-01-31T05:50:34.431Z,1.80
2019-01-31T05:53:02.990Z,1.80
2019-01-31T05:55:31.805Z,1.70
2019-01-31T05:58:00.369Z,1.70
2019-01-31T06:00:30.565Z,1.70
2019-01-31T06:02:59.290Z,1.70
2019-01-31T06:05:27.909Z,1.70
2019-01-31T06:07:58.143Z,1.70
2019-01-31T06:10:26.989Z,1.70
2019-01-31T06:12:55.560Z,1.70
2019-01-31T06:15:24.579Z,1.70
2019-01-31T06:17:53.200Z,1.70
2019-01-31T06:20:24.617Z,1.70
2019-01-31T06:22:53.240Z,1.70
2019-01-31T06:25:22.202Z,1.60
2019-01-31T06:27:50.894Z,1.60
2019-01-31T06:30:19.965Z,1.60
2019-01-31T06:32:48.908Z,1.60
2019-01-31T06:35:17.966Z,1.60
2019-01-31T06:37:46.524Z,1.70
2019-01-31T06:40:20.434Z,1.60
2019-01-31T06:42:49.254Z,1.60
2019-01-31T06:45:20.685Z,1.60
2019-01-31T06:47:49.616Z,1.60
2019-01-31T06:50:18.672Z,1.60
2019-01-31T06:52:47.240Z,1.60
2019-01-31T06:55:16.177Z,1.60
2019-01-31T06:57:44.750Z,1.60
2019-01-31T07:00:19.493Z,1.60
2019-01-31T07:02:48.608Z,1.60
2019-01-31T07:05:17.644Z,1.60
2019-01-31T07:07:46.196Z,1.60
2019-01-31T07:10:20.947Z,1.60
2019-01-31T07:12:49.519Z,1.60
2019-01-31T07:15:18.323Z,1.60
2019-01-31T07:17:46.967Z,1.60
2019-01-31T07:20:17.260Z,1.60
2019-01-31T07:22:46.639Z,1.60
2019-01-31T07:25:21.252Z,1.60
2019-01-31T07:27:49.830Z,1.60
2019-01-31T07:30:21.262Z,1.60
2019-01-31T07:32:50.601Z,1.70
2019-01-31T07:35:19.397Z,1.70
2019-01-31T07:37:49.604Z,1.70
2019-01-31T07:40:20.514Z,1.70
2019-01-31T07:42:49.430Z,1.80
2019-01-31T07:45:23.190Z,1.80
2019-01-31T07:47:52.350Z,1.80
2019-01-31T07:50:21.305Z,1.80
2019-01-31T07:52:50.116Z,1.80
2019-01-31T07:55:19.528Z,1.80
2019-01-31T07:57:48.702Z,1.80
2019-01-31T08:00:22.129Z,1.70
2019-01-31T08:02:51.002Z,1.80
2019-01-31T08:05:23.979Z,1.70
2019-01-31T08:07:54.675Z,1.80
2019-01-31T08:10:26.605Z,1.80
2019-01-31T08:12:55.330Z,1.80
2019-01-31T08:15:24.262Z,1.90
2019-01-31T08:17:52.887Z,2.00
2019-01-31T08:20:21.840Z,2.00
2019-01-31T08:22:50.471Z,2.10
2019-01-31T08:25:21.699Z,2.10
2019-01-31T08:27:51.997Z,2.10
2019-01-31T08:30:23.582Z,2.30
2019-01-31T08:32:52.446Z,2.40
2019-01-31T08:35:21.532Z,2.50
2019-01-31T08:37:50.281Z,2.60
2019-01-31T08:40:18.907Z,2.80
2019-01-31T08:42:47.797Z,2.90
2019-01-31T08:45:16.610Z,2.90
2019-01-31T08:47:45.364Z,3.00
2019-01-31T08:50:19.940Z,3.10
2019-01-31T08:52:49.299Z,3.20
2019-01-31T08:55:18.111Z,3.30
2019-01-31T08:57:47.756Z,3.40
2019-01-31T09:00:24.579Z,3.50
2019-01-31T09:02:53.462Z,3.60
2019-01-31T09:05:22.339Z,3.70
2019-01-31T09:07:51.108Z,3.80
2019-01-31T09:10:25.529Z,3.80
2019-01-31T09:12:54.228Z,3.90
2019-01-31T09:15:24.687Z,4.00
2019-01-31T09:17:53.453Z,4.10
2019-01-31T09:20:41.693Z,4.20
2019-01-31T09:23:19.609Z,4.30
2019-01-31T09:26:06.319Z,4.40
2019-01-31T09:28:43.750Z,4.40
2019-01-31T09:31:24.390Z,4.50
2019-01-31T09:34:17.385Z,4.60
2019-01-31T09:36:51.846Z,4.70
2019-01-31T09:39:23.479Z,4.80
2019-01-31T09:42:03.972Z,4.90
2019-01-31T09:45:01.176Z,5.00
2019-01-31T09:47:36.567Z,5.10
2019-01-31T09:50:20.373Z,5.20
2019-01-31T09:53:25.340Z,5.30
2019-01-31T09:56:22.707Z,5.40
2019-01-31T09:59:00.273Z,5.50
2019-01-31T10:02:05.337Z,5.50
2019-01-31T10:04:46.101Z,5.60
2019-01-31T10:07:20.375Z,5.60
2019-01-31T10:10:04.590Z,5.70
2019-01-31T10:12:41.701Z,5.80
2019-01-31T10:15:32.581Z,5.80
2019-01-31T10:18:12.946Z,5.80
2019-01-31T10:21:19.603Z,5.80
2019-01-31T10:24:06.540Z,5.80
2019-01-31T10:26:41.545Z,5.60
2019-01-31T10:29:34.549Z,5.60
2019-01-31T10:32:06.430Z,5.70
2019-01-31T10:34:53.256Z,5.60
2019-01-31T10:37:30.989Z,5.60
2019-01-31T10:40:17.427Z,5.50
2019-01-31T10:43:05.005Z,5.60
2019-01-31T10:45:48.639Z,5.50
2019-01-31T10:48:53.508Z,5.50
2019-01-31T10:51:30.883Z,5.50
2019-01-31T10:54:18.917Z,5.50
2019-01-31T10:57:02.541Z,5.50
2019-01-31T10:59:36.897Z,5.50
2019-01-31T11:02:31.547Z,5.40
2019-01-31T11:05:22.833Z,5.40
2019-01-31T11:08:00.673Z,5.30
2019-01-31T11:10:41.501Z,5.20
2019-01-31T11:13:31.679Z,5.10
2019-01-31T11:16:06.480Z,5.10
2019-01-31T11:18:47.221Z,5.10
2019-01-31T11:21:35.163Z,5.00
2019-01-31T11:24:25.957Z,5.00
2019-01-31T11:27:00.703Z,4.90
2019-01-31T11:29:35.182Z,4.80
2019-01-31T11:32:31.341Z,4.70
2019-01-31T11:35:21.151Z,4.70
2019-01-31T11:38:07.242Z,4.60
2019-01-31T11:40:41.727Z,4.50
2019-01-31T11:43:35.058Z,4.50
2019-01-31T11:46:15.455Z,4.50
2019-01-31T11:48:50.044Z,4.40
2019-01-31T11:51:55.419Z,4.40
2019-01-31T11:54:55.173Z,4.40
2019-01-31T11:57:44.202Z,4.30
2019-01-31T12:00:17.486Z,4.30
2019-01-31T12:02:54.786Z,4.30
2019-01-31T12:05:16.624Z,4.20
2019-01-31T12:07:45.713Z,4.20
2019-01-31T12:10:14.534Z,4.20
2019-01-31T12:12:43.861Z,4.20
2019-01-31T12:15:12.992Z,4.20
2019-01-31T12:17:41.889Z,4.10
2019-01-31T12:20:16.082Z,4.10
2019-01-31T12:22:45.197Z,4.10
2019-01-31T12:25:14.249Z,4.10
2019-01-31T12:27:43.181Z,4.10
2019-01-31T12:30:14.904Z,4.10
2019-01-31T12:32:44.033Z,4.10
2019-01-31T12:35:12.931Z,4.10
2019-01-31T12:37:41.814Z,4.10
2019-01-31T12:40:13.749Z,4.10
2019-01-31T12:42:42.866Z,4.00
2019-01-31T12:45:14.372Z,4.10
2019-01-31T12:47:43.317Z,4.10
2019-01-31T12:50:17.560Z,4.10
2019-01-31T12:52:46.425Z,4.10
2019-01-31T12:55:15.039Z,4.10
2019-01-31T12:57:43.998Z,4.10
2019-01-31T13:00:18.569Z,4.10
2019-01-31T13:02:47.929Z,4.10
2019-01-31T13:05:16.746Z,4.10
2019-01-31T13:07:46.047Z,4.10
2019-01-31T13:10:15.405Z,4.10
2019-01-31T13:12:48.903Z,4.20
2019-01-31T13:15:16.731Z,4.20
2019-01-31T13:17:45.974Z,4.20
2019-01-31T13:20:17.714Z,4.20
2019-01-31T13:22:47.034Z,4.20
2019-01-31T13:25:16.125Z,4.20
2019-01-31T13:27:45.117Z,4.20
2019-01-31T13:30:16.785Z,4.10
2019-01-31T13:32:46.199Z,4.20
2019-01-31T13:35:16.374Z,4.10
2019-01-31T13:37:45.185Z,4.10
2019-01-31T13:40:22.152Z,4.10
2019-01-31T13:42:51.727Z,4.10
2019-01-31T13:45:28.583Z,4.10
2019-01-31T13:47:59.915Z,4.10
2019-01-31T13:50:28.822Z,4.20
2019-01-31T13:52:57.689Z,4.20
2019-01-31T13:55:28.989Z,4.30
2019-01-31T13:57:57.707Z,4.40
2019-01-31T14:00:26.615Z,4.50
2019-01-31T14:02:55.710Z,4.50
2019-01-31T14:05:25.717Z,4.50
2019-01-31T14:07:54.799Z,4.60
2019-01-31T14:10:25.439Z,4.60
2019-01-31T14:12:54.343Z,4.60
2019-01-31T14:15:33.881Z,4.60
2019-01-31T14:18:01.943Z,4.60
2019-01-31T14:20:30.850Z,4.60
2019-01-31T14:22:59.495Z,4.60
2019-01-31T14:25:28.622Z,4.60
2019-01-31T14:27:57.255Z,4.60
2019-01-31T14:30:29.077Z,4.60
2019-01-31T14:32:58.511Z,4.50
2019-01-31T14:35:28.084Z,4.50
2019-01-31T14:37:57.097Z,4.50
2019-01-31T14:40:26.572Z,4.50
2019-01-31T14:42:56.399Z,4.50
2019-01-31T14:45:25.692Z,4.50
2019-01-31T14:47:55.875Z,4.50
2019-01-31T14:50:35.563Z,4.50
2019-01-31T14:53:04.813Z,4.50
2019-01-31T14:55:33.947Z,4.50
2019-01-31T14:58:02.839Z,4.50
2019-01-31T15:00:33.366Z,4.50
2019-01-31T15:03:05.325Z,4.50
2019-01-31T15:05:36.619Z,4.50
2019-01-31T15:08:04.969Z,4.50
2019-01-31T15:10:34.370Z,4.50
2019-01-31T15:13:02.916Z,4.50
2019-01-31T15:15:34.537Z,4.50
2019-01-31T15:18:03.173Z,4.40
2019-01-31T15:20:42.834Z,4.40
2019-01-31T15:23:11.543Z,4.40
2019-01-31T15:25:40.502Z,4.40
2019-01-31T15:28:09.205Z,4.30
2019-01-31T15:30:38.705Z,4.30
2019-01-31T15:33:10.015Z,4.30
2019-01-31T15:35:38.919Z,4.30
2019-01-31T15:38:07.739Z,4.20
2019-01-31T15:40:42.865Z,4.20
2019-01-31T15:43:12.098Z,4.20
2019-01-31T15:45:41.043Z,4.20
2019-01-31T15:48:10.780Z,4.10
2019-01-31T15:50:40.067Z,4.10
2019-01-31T15:53:09.366Z,4.10
2019-01-31T15:55:38.382Z,4.00
2019-01-31T15:58:07.179Z,4.00
2019-01-31T16:00:40.736Z,4.00
2019-01-31T16:03:11.452Z,4.00
2019-01-31T16:05:40.377Z,4.00
2019-01-31T16:08:09.882Z,3.90
2019-01-31T16:10:38.804Z,3.90
2019-01-31T16:13:07.805Z,3.90
2019-01-31T16:15:36.896Z,3.90
2019-01-31T16:18:07.711Z,3.80
2019-01-31T16:20:36.535Z,3.80
2019-01-31T16:23:05.634Z,3.80
2019-01-31T16:25:34.384Z,3.80
2019-01-31T16:28:03.096Z,3.80
2019-01-31T16:30:31.972Z,3.80
2019-01-31T16:33:00.558Z,3.80
2019-01-31T16:35:30.130Z,3.80
2019-01-31T16:37:58.744Z,3.80
2019-01-31T16:40:27.708Z,3.80
2019-01-31T16:42:56.344Z,3.80
2019-01-31T16:45:25.813Z,3.80
2019-01-31T16:47:54.450Z,3.70
2019-01-31T16:50:24.704Z,3.70
2019-01-31T16:52:53.659Z,3.70
2019-01-31T16:55:29.979Z,3.70
2019-01-31T16:57:59.172Z,3.70
2019-01-31T17:00:30.613Z,3.70
2019-01-31T17:02:59.311Z,3.70
2019-01-31T17:05:30.443Z,3.60
2019-01-31T17:07:59.544Z,3.70
2019-01-31T17:10:28.434Z,3.70
2019-01-31T17:12:57.927Z,3.60
2019-01-31T17:15:27.530Z,3.60
2019-01-31T17:17:56.324Z,3.60
2019-01-31T17:20:37.292Z,3.50
2019-01-31T17:23:06.002Z,3.50
2019-01-31T17:25:35.077Z,3.50
2019-01-31T17:28:03.646Z,3.40
2019-01-31T17:30:32.441Z,3.40
2019-01-31T17:33:04.093Z,3.40
2019-01-31T17:35:32.906Z,3.40
2019-01-31T17:38:01.538Z,3.30
2019-01-31T17:40:35.564Z,3.30
2019-01-31T17:43:05.130Z,3.30
2019-01-31T17:45:36.912Z,3.30
2019-01-31T17:48:06.504Z,3.30
2019-01-31T17:50:35.249Z,3.30
2019-01-31T17:53:04.138Z,3.30
2019-01-31T17:55:32.847Z,3.30
2019-01-31T17:58:01.922Z,3.20
2019-01-31T18:00:37.854Z,3.20
2019-01-31T18:03:07.657Z,3.20
2019-01-31T18:05:36.691Z,3.20
2019-01-31T18:08:09.150Z,3.20
2019-01-31T18:10:37.019Z,3.20
2019-01-31T18:13:05.848Z,3.20
2019-01-31T18:15:41.665Z,3.10
2019-01-31T18:18:05.764Z,3.10
2019-01-31T18:20:35.046Z,3.10
2019-01-31T18:23:06.655Z,3.00
2019-01-31T18:25:35.479Z,3.00
2019-01-31T18:28:04.456Z,2.90
2019-01-31T18:30:35.733Z,2.90
2019-01-31T18:33:05.435Z,2.90
2019-01-31T18:35:34.733Z,2.90
2019-01-31T18:38:03.290Z,2.80
2019-01-31T18:40:34.770Z,2.80
2019-01-31T18:43:03.481Z,2.80
2019-01-31T18:45:38.093Z,2.70
2019-01-31T18:48:07.022Z,2.70
2019-01-31T18:50:39.138Z,2.70
2019-01-31T18:53:08.506Z,2.60
2019-01-31T18:55:37.348Z,2.60
2019-01-31T18:58:06.866Z,2.60
2019-01-31T19:00:44.549Z,2.60
2019-01-31T19:03:13.301Z,2.60
2019-01-31T19:05:42.536Z,2.60
2019-01-31T19:08:11.178Z,2.60
2019-01-31T19:10:43.971Z,2.50
2019-01-31T19:13:10.372Z,2.50
2019-01-31T19:15:39.153Z,2.50
2019-01-31T19:18:07.875Z,2.50
2019-01-31T19:20:36.968Z,2.50
2019-01-31T19:23:07.479Z,2.40
2019-01-31T19:25:36.439Z,2.40
2019-01-31T19:28:06.443Z,2.50
2019-01-31T19:30:40.033Z,2.40
2019-01-31T19:33:08.924Z,2.40
2019-01-31T19:35:38.131Z,2.40
2019-01-31T19:38:07.734Z,2.40
2019-01-31T19:40:39.195Z,2.40
2019-01-31T19:43:07.918Z,2.40
2019-01-31T19:45:39.676Z,2.30
2019-01-31T19:48:08.984Z,2.30
2019-01-31T19:50:37.914Z,2.30
2019-01-31T19:53:06.799Z,2.30
2019-01-31T19:55:35.902Z,2.30
2019-01-31T19:58:05.198Z,2.30
2019-01-31T20:00:34.102Z,2.30
2019-01-31T20:03:07.008Z,2.30
2019-01-31T20:05:36.204Z,2.30
2019-01-31T20:08:06.493Z,2.30
2019-01-31T20:10:35.242Z,2.30
2019-01-31T20:13:04.245Z,2.30
2019-01-31T20:15:35.833Z,2.30
2019-01-31T20:18:05.003Z,2.20
2019-01-31T20:20:33.653Z,2.20
2019-01-31T20:23:02.709Z,2.20
2019-01-31T20:25:32.006Z,2.20
2019-01-31T20:28:00.636Z,2.20
2019-01-31T20:30:31.444Z,2.20
2019-01-31T20:33:01.794Z,2.10
2019-01-31T20:35:31.011Z,2.10
2019-01-31T20:38:00.405Z,2.10
2019-01-31T20:40:38.045Z,2.10
2019-01-31T20:43:08.960Z,2.10
2019-01-31T20:45:38.287Z,2.10
2019-01-31T20:48:07.406Z,2.10
2019-01-31T20:50:38.313Z,2.10
2019-01-31T20:53:07.691Z,2.10
2019-01-31T20:55:37.111Z,2.10
2019-01-31T20:58:06.536Z,2.10
2019-01-31T21:00:37.976Z,2.10
2019-01-31T21:03:08.280Z,2.00
2019-01-31T21:05:37.379Z,2.00
2019-01-31T21:08:08.128Z,2.10
2019-01-31T21:10:37.016Z,2.00
2019-01-31T21:13:06.973Z,2.00
2019-01-31T21:15:35.861Z,2.00
2019-01-31T21:18:05.486Z,2.00
2019-01-31T21:20:34.403Z,2.00
2019-01-31T21:23:04.237Z,2.00
2019-01-31T21:25:34.433Z,2.00
2019-01-31T21:28:03.521Z,2.00
2019-01-31T21:30:37.444Z,2.00
2019-01-31T21:33:07.909Z,2.00
2019-01-31T21:35:36.603Z,2.00
2019-01-31T21:38:05.988Z,1.90
2019-01-31T21:40:35.478Z,2.00
2019-01-31T21:43:05.184Z,1.90
2019-01-31T21:45:34.078Z,1.90
2019-01-31T21:48:02.964Z,1.90
2019-01-31T21:50:33.066Z,1.90
2019-01-31T21:53:02.187Z,1.90
2019-01-31T21:55:32.517Z,1.90
2019-01-31T21:58:01.317Z,1.90
2019-01-31T22:00:32.422Z,1.90
2019-01-31T22:03:01.178Z,1.80
2019-01-31T22:05:30.095Z,1.80
2019-01-31T22:07:59.222Z,1.80
2019-01-31T22:10:27.837Z,1.90
2019-01-31T22:12:56.562Z,1.80
2019-01-31T22:15:27.290Z,1.80
2019-01-31T22:17:59.742Z,1.80
2019-01-31T22:20:26.666Z,1.80
2019-01-31T22:22:55.832Z,1.80
2019-01-31T22:25:25.350Z,1.80
2019-01-31T22:27:54.442Z,1.80
2019-01-31T22:30:31.287Z,1.80
2019-01-31T22:33:00.537Z,1.80
2019-01-31T22:35:29.320Z,1.80
2019-01-31T22:37:58.400Z,1.80
2019-01-31T22:40:27.031Z,1.80
2019-01-31T22:42:55.798Z,1.80
2019-01-31T22:45:25.393Z,1.80
2019-01-31T22:47:54.201Z,1.80
2019-01-31T22:50:24.082Z,1.80
2019-01-31T22:52:52.887Z,1.80
2019-01-31T22:55:23.388Z,1.70
2019-01-31T22:57:52.500Z,1.70
2019-01-31T23:00:54.064Z,1.70
2019-01-31T23:03:23.597Z,1.70
2019-01-31T23:05:52.223Z,1.70
2019-01-31T23:08:21.026Z,1.70
2019-01-31T23:10:49.734Z,1.70
2019-01-31T23:13:19.214Z,1.70
2019-01-31T23:15:47.773Z,1.80
2019-01-31T23:18:16.491Z,1.80
2019-01-31T23:20:45.063Z,1.80
2019-01-31T23:23:13.755Z,1.80
2019-01-31T23:25:42.390Z,1.80
2019-01-31T23:28:11.020Z,1.80
2019-01-31T23:30:40.027Z,1.80
2019-01-31T23:33:08.660Z,1.80
2019-01-31T23:35:37.418Z,1.70
2019-01-31T23:38:06.206Z,1.60
2019-01-31T23:40:34.868Z,1.60
2019-01-31T23:43:03.701Z,1.60
2019-01-31T23:45:32.416Z,1.60
2019-01-31T23:48:05.797Z,1.50
2019-01-31T23:50:34.828Z,1.50
2019-01-31T23:53:03.464Z,1.50
2019-01-31T23:55:32.176Z,1.50
2019-01-31T23:58:01.090Z,1.50
